Wetterdaten: Mittwoch, 20.01.2021
Datum Zeit Temp. A. Temp. A. min Temp. A. max Feuchte A. Bod.Feucht 4 Luftdruck Regen Wind Richtung Richtung Sonnenschein ET Solar Taupunkt Windchill Windben Empfang
20.01.2021 00:00 -0,6 C -0,8 C -0,6 C 93 % 0 cb 1012,8 hPa 0,0 l/m 3,2 km/h (1 Bft) S 180 0 min 0,000 mm 0 W/m -1,6 C -0,6 C 8,0 km/h (2 Bft) 100,00 %
20.01.2021 00:10 -0,7 C -0,7 C -0,6 C 93 % 0 cb 1012,6 hPa 0,0 l/m 1,6 km/h (1 Bft) S 180 0 min 0,000 mm 0 W/m -1,7 C -0,7 C 4,8 km/h (1 Bft) 100,00 %
20.01.2021 00:20 -0,7 C -0,7 C -0,7 C 92 % 0 cb 1012,6 hPa 0,0 l/m 0,0 km/h (0 Bft) S 180 0 min 0,000 mm 0 W/m -1,8 C -0,7 C 3,2 km/h (1 Bft) 100,00 %
20.01.2021 00:30 -0,9 C -0,9 C -0,7 C 92 % 0 cb 1012,5 hPa 0,0 l/m 0,0 km/h (0 Bft) S 180 0 min 0,000 mm 0 W/m -2,0 C -0,9 C 1,6 km/h (1 Bft) 100,00 %
20.01.2021 00:40 -0,8 C -0,9 C -0,8 C 93 % 0 cb 1012,4 hPa 0,0 l/m 0,0 km/h (0 Bft) S 180 0 min 0,000 mm 0 W/m -1,8 C -0,8 C 3,2 km/h (1 Bft) 100,00 %
20.01.2021 00:50 -0,8 C -0,8 C -0,7 C 92 % 0 cb 1012,1 hPa 0,0 l/m 0,0 km/h (0 Bft) S 180 0 min 0,000 mm 0 W/m -1,9 C -0,8 C 3,2 km/h (1 Bft) 100,00 %
20.01.2021 01:00 -0,9 C -0,9 C -0,8 C 93 % 0 cb 1012,0 hPa 0,0 l/m 0,0 km/h (0 Bft) S 180 0 min 0,000 mm 0 W/m -1,9 C -0,9 C 6,4 km/h (2 Bft) 100,00 %
20.01.2021 01:10 -0,9 C -0,9 C -0,9 C 92 % 0 cb 1011,9 hPa 0,0 l/m 0,0 km/h (0 Bft) S 180 0 min 0,000 mm 0 W/m -2,0 C -0,9 C 3,2 km/h (1 Bft) 100,00 %
20.01.2021 01:20 -1,1 C -1,1 C -0,9 C 93 % 0 cb 1011,9 hPa 0,0 l/m 0,0 km/h (0 Bft) S 180 0 min 0,000 mm 0 W/m -2,1 C -1,1 C 3,2 km/h (1 Bft) 100,00 %
20.01.2021 01:30 -1,0 C -1,1 C -1,0 C 93 % 0 cb 1011,7 hPa 0,0 l/m 0,0 km/h (0 Bft) S 180 0 min 0,000 mm 0 W/m -2,0 C -1,0 C 3,2 km/h (1 Bft) 99,56 %
20.01.2021 01:40 -1,0 C -1,1 C -1,0 C 93 % 0 cb 1011,6 hPa 0,0 l/m 1,6 km/h (1 Bft) S 180 0 min 0,000 mm 0 W/m -2,0 C -1,0 C 3,2 km/h (1 Bft) 100,00 %
20.01.2021 01:50 -0,8 C -1,0 C -0,8 C 93 % 0 cb 1011,6 hPa 0,0 l/m 1,6 km/h (1 Bft) S 180 0 min 0,000 mm 0 W/m -1,8 C -0,8 C 6,4 km/h (2 Bft) 99,12 %
20.01.2021 02:00 -0,6 C -0,8 C -0,6 C 93 % 0 cb 1011,4 hPa 0,0 l/m 1,6 km/h (1 Bft) S 180 0 min 0,000 mm 0 W/m -1,6 C -0,6 C 6,4 km/h (2 Bft) 100,00 %
20.01.2021 02:10 -0,6 C -0,6 C -0,6 C 92 % 0 cb 1011,4 hPa 0,0 l/m 1,6 km/h (1 Bft) S 180 0 min 0,000 mm 0 W/m -1,7 C -0,6 C 3,2 km/h (1 Bft) 99,56 %
20.01.2021 02:20 -0,6 C -0,6 C -0,6 C 92 % 0 cb 1011,4 hPa 0,0 l/m 1,6 km/h (1 Bft) S 180 0 min 0,000 mm 0 W/m -1,7 C -0,6 C 4,8 km/h (1 Bft) 100,00 %
20.01.2021 02:30 -0,7 C -0,7 C -0,6 C 92 % 0 cb 1011,4 hPa 0,0 l/m 1,6 km/h (1 Bft) S 180 0 min 0,000 mm 0 W/m -1,8 C -0,7 C 6,4 km/h (2 Bft) 100,00 %
20.01.2021 02:40 -0,7 C -0,7 C -0,7 C 92 % 0 cb 1011,3 hPa 0,0 l/m 1,6 km/h (1 Bft) S 180 0 min 0,000 mm 0 W/m -1,8 C -0,7 C 6,4 km/h (2 Bft) 100,00 %
20.01.2021 02:50 -0,7 C -0,7 C -0,7 C 92 % 0 cb 1011,3 hPa 0,0 l/m 1,6 km/h (1 Bft) S 180 0 min 0,000 mm 0 W/m -1,8 C -0,7 C 4,8 km/h (1 Bft) 100,00 %
20.01.2021 03:00 -0,6 C -0,7 C -0,6 C 92 % 0 cb 1011,1 hPa 0,0 l/m 1,6 km/h (1 Bft) S 180 0 min 0,000 mm 0 W/m -1,7 C -0,6 C 6,4 km/h (2 Bft) 100,00 %
20.01.2021 03:10 -0,3 C -0,6 C -0,3 C 91 % 0 cb 1011,0 hPa 0,0 l/m 1,6 km/h (1 Bft) S 180 0 min 0,000 mm 0 W/m -1,6 C -0,3 C 8,0 km/h (2 Bft) 100,00 %
20.01.2021 03:20 -0,2 C -0,3 C -0,2 C 91 % 0 cb 1010,9 hPa 0,0 l/m 1,6 km/h (1 Bft) S 180 0 min 0,000 mm 0 W/m -1,5 C -0,2 C 8,0 km/h (2 Bft) 100,00 %
20.01.2021 03:30 -0,1 C -0,2 C -0,1 C 90 % 0 cb 1011,0 hPa 0,0 l/m 1,6 km/h (1 Bft) S 180 0 min 0,000 mm 0 W/m -1,5 C -0,1 C 6,4 km/h (2 Bft) 100,00 %
20.01.2021 03:40 0,1 C -0,1 C 0,1 C 89 % 0 cb 1010,9 hPa 0,0 l/m 3,2 km/h (1 Bft) S 180 0 min 0,000 mm 0 W/m -1,5 C 0,1 C 9,7 km/h (2 Bft) 100,00 %
20.01.2021 03:50 0,2 C 0,1 C 0,2 C 89 % 0 cb 1010,9 hPa 0,0 l/m 1,6 km/h (1 Bft) S 180 0 min 0,000 mm 0 W/m -1,4 C 0,2 C 6,4 km/h (2 Bft) 100,00 %
20.01.2021 04:00 0,1 C 0,1 C 0,2 C 88 % 0 cb 1010,8 hPa 0,0 l/m 0,0 km/h (0 Bft) S 180 0 min 0,000 mm 0 W/m -1,6 C 0,1 C 3,2 km/h (1 Bft) 100,00 %
20.01.2021 04:10 -0,2 C -0,2 C 0,1 C 88 % 0 cb 1010,8 hPa 0,0 l/m 0,0 km/h (0 Bft) N 0 0 min 0,000 mm 0 W/m -1,9 C -0,2 C 0,0 km/h (0 Bft) 100,00 %
20.01.2021 04:20 -0,4 C -0,4 C -0,2 C 89 % 0 cb 1010,7 hPa 0,0 l/m 0,0 km/h (0 Bft) S 180 0 min 0,000 mm 0 W/m -2,0 C -0,4 C 1,6 km/h (1 Bft) 100,00 %
20.01.2021 04:30 -0,6 C -0,7 C -0,4 C 90 % 0 cb 1010,6 hPa 0,0 l/m 0,0 km/h (0 Bft) N 0 0 min 0,000 mm 0 W/m -2,0 C -0,6 C 0,0 km/h (0 Bft) 99,56 %
20.01.2021 04:40 -0,7 C -0,8 C -0,7 C 91 % 0 cb 1010,4 hPa 0,0 l/m 0,0 km/h (0 Bft) N 0 0 min 0,000 mm 0 W/m -2,0 C -0,7 C 0,0 km/h (0 Bft) 98,68 %
20.01.2021 04:50 -0,7 C -0,8 C -0,7 C 91 % 0 cb 1010,2 hPa 0,0 l/m 0,0 km/h (0 Bft) N 0 0 min 0,000 mm 0 W/m -2,0 C -0,7 C 0,0 km/h (0 Bft) 100,00 %
20.01.2021 05:00 -0,6 C -0,7 C -0,6 C 91 % 0 cb 1010,2 hPa 0,0 l/m 0,0 km/h (0 Bft) N 0 0 min 0,000 mm 0 W/m -1,9 C -0,6 C 0,0 km/h (0 Bft) 100,00 %
20.01.2021 05:10 -0,5 C -0,6 C -0,4 C 90 % 0 cb 1010,1 hPa 0,0 l/m 0,0 km/h (0 Bft) S 180 0 min 0,000 mm 0 W/m -1,9 C -0,5 C 3,2 km/h (1 Bft) 100,00 %
20.01.2021 05:20 -0,3 C -0,5 C -0,3 C 90 % 0 cb 1010,1 hPa 0,0 l/m 0,0 km/h (0 Bft) S 180 0 min 0,000 mm 0 W/m -1,7 C -0,3 C 4,8 km/h (1 Bft) 100,00 %
20.01.2021 05:30 0,1 C -0,3 C 0,1 C 90 % 0 cb 1010,0 hPa 0,0 l/m 1,6 km/h (1 Bft) S 180 0 min 0,000 mm 0 W/m -1,3 C 0,1 C 4,8 km/h (1 Bft) 100,00 %
20.01.2021 05:40 0,2 C 0,1 C 0,2 C 89 % 0 cb 1010,0 hPa 0,0 l/m 1,6 km/h (1 Bft) S 180 0 min 0,000 mm 0 W/m -1,4 C 0,2 C 4,8 km/h (1 Bft) 100,00 %
20.01.2021 05:50 0,3 C 0,2 C 0,3 C 88 % 0 cb 1009,9 hPa 0,0 l/m 1,6 km/h (1 Bft) S 180 0 min 0,000 mm 0 W/m -1,4 C 0,3 C 6,4 km/h (2 Bft) 100,00 %
20.01.2021 06:00 0,2 C 0,2 C 0,3 C 88 % 0 cb 1009,9 hPa 0,0 l/m 0,0 km/h (0 Bft) S 180 0 min 0,000 mm 0 W/m -1,5 C 0,2 C 3,2 km/h (1 Bft) 100,00 %
20.01.2021 06:10 0,3 C 0,2 C 0,3 C 89 % 0 cb 1009,9 hPa 0,0 l/m 0,0 km/h (0 Bft) S 180 0 min 0,000 mm 0 W/m -1,3 C 0,3 C 4,8 km/h (1 Bft) 100,00 %
20.01.2021 06:20 0,3 C 0,3 C 0,3 C 88 % 0 cb 1009,8 hPa 0,0 l/m 0,0 km/h (0 Bft) S 180 0 min 0,000 mm 0 W/m -1,4 C 0,3 C 3,2 km/h (1 Bft) 100,00 %
20.01.2021 06:30 0,4 C 0,3 C 0,4 C 88 % 0 cb 1009,7 hPa 0,0 l/m 0,0 km/h (0 Bft) S 180 0 min 0,000 mm 0 W/m -1,3 C 0,4 C 3,2 km/h (1 Bft) 100,00 %
20.01.2021 06:40 0,4 C 0,4 C 0,4 C 88 % 0 cb 1009,7 hPa 0,0 l/m 0,0 km/h (0 Bft) S 180 0 min 0,000 mm 0 W/m -1,3 C 0,4 C 1,6 km/h (1 Bft) 100,00 %
20.01.2021 06:50 0,4 C 0,3 C 0,4 C 88 % 0 cb 1009,6 hPa 0,0 l/m 1,6 km/h (1 Bft) S 180 0 min 0,000 mm 0 W/m -1,3 C 0,4 C 4,8 km/h (1 Bft) 100,00 %
20.01.2021 07:00 0,5 C 0,4 C 0,5 C 88 % 0 cb 1009,5 hPa 0,0 l/m 0,0 km/h (0 Bft) S 180 0 min 0,000 mm 0 W/m -1,3 C 0,5 C 3,2 km/h (1 Bft) 97,81 %
20.01.2021 07:10 0,4 C 0,4 C 0,5 C 88 % 0 cb 1009,3 hPa 0,0 l/m 0,0 km/h (0 Bft) S 180 0 min 0,000 mm 0 W/m -1,3 C 0,4 C 1,6 km/h (1 Bft) 99,12 %
20.01.2021 07:20 0,4 C 0,3 C 0,4 C 88 % 0 cb 1009,3 hPa 0,0 l/m 1,6 km/h (1 Bft) S 180 0 min 0,000 mm 0 W/m -1,3 C 0,4 C 3,2 km/h (1 Bft) 100,00 %
20.01.2021 07:30 0,4 C 0,4 C 0,4 C 88 % 0 cb 1009,3 hPa 0,0 l/m 1,6 km/h (1 Bft) S 180 0 min 0,000 mm 0 W/m -1,3 C 0,4 C 4,8 km/h (1 Bft) 100,00 %
20.01.2021 07:40 0,6 C 0,4 C 0,6 C 88 % 0 cb 1009,2 hPa 0,0 l/m 1,6 km/h (1 Bft) S 180 0 min 0,000 mm 0 W/m -1,2 C 0,6 C 6,4 km/h (2 Bft) 100,00 %
20.01.2021 07:50 0,7 C 0,6 C 0,7 C 88 % 0 cb 1009,1 hPa 0,0 l/m 1,6 km/h (1 Bft) S 180 0 min 0,000 mm 0 W/m -1,1 C 0,7 C 4,8 km/h (1 Bft) 100,00 %
20.01.2021 08:00 0,7 C 0,7 C 0,7 C 88 % 0 cb 1008,9 hPa 0,0 l/m 1,6 km/h (1 Bft) S 180 0 min 0,000 mm 0 W/m -1,1 C 0,7 C 4,8 km/h (1 Bft) 100,00 %
20.01.2021 08:10 0,7 C 0,7 C 0,7 C 88 % 0 cb 1009,0 hPa 0,0 l/m 1,6 km/h (1 Bft) S 180 0 min 0,000 mm 0 W/m -1,1 C 0,7 C 3,2 km/h (1 Bft) 100,00 %
20.01.2021 08:20 0,8 C 0,7 C 0,8 C 89 % 0 cb 1009,0 hPa 0,0 l/m 1,6 km/h (1 Bft) S 180 0 min 0,000 mm 0 W/m -0,8 C 0,8 C 4,8 km/h (1 Bft) 100,00 %
20.01.2021 08:30 0,9 C 0,8 C 0,9 C 88 % 0 cb 1009,0 hPa 0,0 l/m 1,6 km/h (1 Bft) S 180 0 min 0,000 mm 5 W/m -0,9 C 0,9 C 3,2 km/h (1 Bft) 100,00 %
20.01.2021 08:40 0,8 C 0,8 C 0,9 C 88 % 0 cb 1008,8 hPa 0,0 l/m 1,6 km/h (1 Bft) S 180 0 min 0,000 mm 11 W/m -1,0 C 0,8 C 4,8 km/h (1 Bft) 100,00 %
20.01.2021 08:50 0,8 C 0,8 C 0,8 C 89 % 0 cb 1008,7 hPa 0,0 l/m 1,6 km/h (1 Bft) S 180 0 min 0,000 mm 18 W/m -0,8 C 0,8 C 4,8 km/h (1 Bft) 100,00 %
20.01.2021 09:00 0,8 C 0,8 C 0,8 C 89 % 0 cb 1008,7 hPa 0,0 l/m 1,6 km/h (1 Bft) S 180 0 min 0,000 mm 23 W/m -0,8 C 0,8 C 4,8 km/h (1 Bft) 98,25 %
20.01.2021 09:10 0,8 C 0,8 C 0,8 C 90 % 0 cb 1008,6 hPa 0,0 l/m 1,6 km/h (1 Bft) S 180 0 min 0,000 mm 32 W/m -0,6 C 0,8 C 4,8 km/h (1 Bft) 98,25 %
20.01.2021 09:20 0,8 C 0,8 C 0,9 C 90 % 0 cb 1008,7 hPa 0,0 l/m 1,6 km/h (1 Bft) S 180 0 min 0,000 mm 35 W/m -0,6 C 0,8 C 4,8 km/h (1 Bft) 99,12 %
20.01.2021 09:30 0,9 C 0,8 C 1,0 C 91 % 0 cb 1008,5 hPa 0,0 l/m 1,6 km/h (1 Bft) S 180 0 min 0,000 mm 42 W/m -0,4 C 0,9 C 3,2 km/h (1 Bft) 100,00 %
20.01.2021 09:40 1,1 C 0,9 C 1,1 C 91 % 0 cb 1008,5 hPa 0,0 l/m 0,0 km/h (0 Bft) S 180 0 min 0,000 mm 54 W/m -0,2 C 1,1 C 4,8 km/h (1 Bft) 100,00 %
20.01.2021 09:50 1,3 C 1,1 C 1,3 C 92 % 0 cb 1008,3 hPa 0,0 l/m 0,0 km/h (0 Bft) S 180 0 min 0,000 mm 62 W/m 0,1 C 1,3 C 6,4 km/h (2 Bft) 100,00 %
20.01.2021 10:00 1,7 C 1,3 C 1,7 C 93 % 0 cb 1008,2 hPa 0,0 l/m 1,6 km/h (1 Bft) S 180 0 min 0,025 mm 79 W/m 0,7 C 1,7 C 9,7 km/h (2 Bft) 100,00 %
20.01.2021 10:10 2,0 C 1,7 C 2,0 C 92 % 0 cb 1008,1 hPa 0,0 l/m 1,6 km/h (1 Bft) S 180 0 min 0,000 mm 102 W/m 0,8 C 2,0 C 8,0 km/h (2 Bft) 100,00 %
20.01.2021 10:20 2,3 C 2,0 C 2,3 C 92 % 0 cb 1008,1 hPa 0,0 l/m 1,6 km/h (1 Bft) S 180 0 min 0,000 mm 105 W/m 1,1 C 2,3 C 8,0 km/h (2 Bft) 100,00 %
20.01.2021 10:30 2,6 C 2,3 C 2,6 C 92 % 0 cb 1007,9 hPa 0,0 l/m 1,6 km/h (1 Bft) S 180 0 min 0,000 mm 105 W/m 1,4 C 2,6 C 8,0 km/h (2 Bft) 100,00 %
20.01.2021 10:40 3,0 C 2,6 C 3,0 C 91 % 0 cb 1007,9 hPa 0,0 l/m 3,2 km/h (1 Bft) S-SW 202 0 min 0,000 mm 107 W/m 1,7 C 3,0 C 19,3 km/h (3 Bft) 99,56 %
20.01.2021 10:50 3,3 C 3,0 C 3,3 C 91 % 0 cb 1007,9 hPa 0,0 l/m 1,6 km/h (1 Bft) S-SW 202 0 min 0,000 mm 130 W/m 2,0 C 3,3 C 12,9 km/h (3 Bft) 98,68 %
20.01.2021 11:00 3,5 C 3,3 C 3,5 C 90 % 0 cb 1007,8 hPa 0,2 l/m 1,6 km/h (1 Bft) S-SW 202 0 min 0,051 mm 132 W/m 2,0 C 3,5 C 6,4 km/h (2 Bft) 100,00 %
20.01.2021 11:10 3,8 C 3,5 C 3,8 C 90 % 0 cb 1007,5 hPa 0,0 l/m 1,6 km/h (1 Bft) S-SW 202 0 min 0,000 mm 132 W/m 2,3 C 3,8 C 8,0 km/h (2 Bft) 100,00 %
20.01.2021 11:20 4,1 C 3,8 C 4,1 C 89 % 0 cb 1007,3 hPa 0,2 l/m 3,2 km/h (1 Bft) S-SW 202 0 min 0,000 mm 146 W/m 2,5 C 4,1 C 9,7 km/h (2 Bft) 100,00 %
20.01.2021 11:30 4,3 C 4,1 C 4,3 C 89 % 0 cb 1007,3 hPa 0,0 l/m 1,6 km/h (1 Bft) S-SW 202 10 min 0,000 mm 207 W/m 2,7 C 4,3 C 6,4 km/h (2 Bft) 100,00 %
20.01.2021 11:40 4,7 C 4,3 C 4,7 C 89 % 0 cb 1007,1 hPa 0,0 l/m 1,6 km/h (1 Bft) S-SW 202 10 min 0,000 mm 299 W/m 3,0 C 4,7 C 8,0 km/h (2 Bft) 100,00 %
20.01.2021 11:50 5,2 C 4,7 C 5,2 C 87 % 0 cb 1006,9 hPa 0,0 l/m 3,2 km/h (1 Bft) SW 225 10 min 0,000 mm 290 W/m 3,2 C 5,2 C 16,1 km/h (3 Bft) 99,12 %
20.01.2021 12:00 5,5 C 5,2 C 5,5 C 86 % 0 cb 1006,6 hPa 0,2 l/m 4,8 km/h (1 Bft) SW 225 10 min 0,076 mm 195 W/m 3,3 C 4,7 C 19,3 km/h (3 Bft) 98,68 %
20.01.2021 12:10 5,7 C 5,5 C 5,7 C 85 % 0 cb 1006,4 hPa 0,0 l/m 6,4 km/h (2 Bft) S 180 10 min 0,000 mm 204 W/m 3,4 C 4,4 C 20,9 km/h (4 Bft) 100,00 %
20.01.2021 12:20 5,8 C 5,7 C 5,8 C 85 % 0 cb 1006,1 hPa 0,2 l/m 6,4 km/h (2 Bft) S-SW 202 10 min 0,000 mm 221 W/m 3,5 C 4,5 C 19,3 km/h (3 Bft) 100,00 %
20.01.2021 12:30 6,0 C 5,8 C 6,0 C 85 % 0 cb 1005,9 hPa 0,0 l/m 8,0 km/h (2 Bft) S-SW 202 10 min 0,000 mm 197 W/m 3,7 C 4,3 C 17,7 km/h (3 Bft) 100,00 %
20.01.2021 12:40 6,1 C 6,0 C 6,1 C 84 % 0 cb 1005,7 hPa 0,0 l/m 4,8 km/h (1 Bft) SW 225 10 min 0,000 mm 190 W/m 3,6 C 5,4 C 17,7 km/h (3 Bft) 100,00 %
20.01.2021 12:50 6,2 C 6,1 C 6,2 C 84 % 0 cb 1005,6 hPa 0,0 l/m 6,4 km/h (2 Bft) S-SW 202 10 min 0,000 mm 204 W/m 3,7 C 5,0 C 20,9 km/h (4 Bft) 99,56 %
20.01.2021 13:00 6,4 C 6,2 C 6,4 C 84 % 0 cb 1005,6 hPa 0,0 l/m 4,8 km/h (1 Bft) S-SW 202 10 min 0,102 mm 292 W/m 3,9 C 5,7 C 16,1 km/h (3 Bft) 100,00 %
20.01.2021 13:10 6,7 C 6,4 C 6,7 C 83 % 0 cb 1005,2 hPa 0,0 l/m 6,4 km/h (2 Bft) S-SW 202 10 min 0,000 mm 278 W/m 4,0 C 5,6 C 19,3 km/h (3 Bft) 100,00 %
20.01.2021 13:20 6,8 C 6,7 C 6,8 C 83 % 0 cb 1005,0 hPa 0,0 l/m 6,4 km/h (2 Bft) S 180 10 min 0,000 mm 260 W/m 4,1 C 5,7 C 16,1 km/h (3 Bft) 100,00 %
20.01.2021 13:30 6,9 C 6,8 C 6,9 C 82 % 0 cb 1004,9 hPa 0,0 l/m 8,0 km/h (2 Bft) S 180 10 min 0,000 mm 192 W/m 4,0 C 5,4 C 19,3 km/h (3 Bft) 100,00 %
20.01.2021 13:40 7,0 C 6,9 C 7,0 C 82 % 0 cb 1004,8 hPa 0,0 l/m 6,4 km/h (2 Bft) S-SW 202 10 min 0,000 mm 237 W/m 4,1 C 5,9 C 16,1 km/h (3 Bft) 100,00 %
20.01.2021 13:50 7,2 C 7,0 C 7,2 C 82 % 0 cb 1004,7 hPa 0,0 l/m 6,4 km/h (2 Bft) SW 225 10 min 0,000 mm 255 W/m 4,3 C 6,1 C 20,9 km/h (4 Bft) 100,00 %
20.01.2021 14:00 7,3 C 7,2 C 7,3 C 81 % 0 cb 1004,5 hPa 0,0 l/m 6,4 km/h (2 Bft) S-SW 202 10 min 0,102 mm 220 W/m 4,3 C 6,3 C 19,3 km/h (3 Bft) 100,00 %
20.01.2021 14:10 7,4 C 7,3 C 7,4 C 81 % 0 cb 1004,2 hPa 0,0 l/m 8,0 km/h (2 Bft) S 180 10 min 0,000 mm 250 W/m 4,4 C 6,0 C 16,1 km/h (3 Bft) 100,00 %
20.01.2021 14:20 7,7 C 7,4 C 7,7 C 81 % 0 cb 1004,2 hPa 0,0 l/m 4,8 km/h (1 Bft) S-SW 202 10 min 0,000 mm 241 W/m 4,7 C 7,2 C 14,5 km/h (3 Bft) 100,00 %
20.01.2021 14:30 7,9 C 7,7 C 7,9 C 80 % 0 cb 1003,9 hPa 0,0 l/m 8,0 km/h (2 Bft) S-SW 202 10 min 0,000 mm 239 W/m 4,7 C 6,5 C 16,1 km/h (3 Bft) 100,00 %
20.01.2021 14:40 8,2 C 7,9 C 8,2 C 78 % 0 cb 1003,7 hPa 0,0 l/m 9,7 km/h (2 Bft) S-SW 202 10 min 0,000 mm 243 W/m 4,6 C 6,5 C 20,9 km/h (4 Bft) 100,00 %
20.01.2021 14:50 8,4 C 8,2 C 8,4 C 78 % 0 cb 1003,5 hPa 0,2 l/m 6,4 km/h (2 Bft) S-SW 202 10 min 0,000 mm 214 W/m 4,8 C 7,5 C 19,3 km/h (3 Bft) 100,00 %
20.01.2021 15:00 8,5 C 8,4 C 8,5 C 77 % 0 cb 1003,4 hPa 0,0 l/m 9,7 km/h (2 Bft) S-SW 202 10 min 0,102 mm 216 W/m 4,7 C 6,9 C 25,7 km/h (4 Bft) 100,00 %
20.01.2021 15:10 8,7 C 8,5 C 8,7 C 77 % 0 cb 1003,4 hPa 0,0 l/m 6,4 km/h (2 Bft) S-SW 202 10 min 0,000 mm 230 W/m 4,9 C 7,9 C 17,7 km/h (3 Bft) 100,00 %
20.01.2021 15:20 8,9 C 8,7 C 8,9 C 76 % 0 cb 1003,4 hPa 0,0 l/m 8,0 km/h (2 Bft) S 180 10 min 0,000 mm 220 W/m 4,9 C 7,7 C 19,3 km/h (3 Bft) 100,00 %
20.01.2021 15:30 9,1 C 8,9 C 9,1 C 75 % 0 cb 1003,5 hPa 0,0 l/m 6,4 km/h (2 Bft) SW 225 10 min 0,000 mm 204 W/m 4,9 C 8,3 C 19,3 km/h (3 Bft) 100,00 %
20.01.2021 15:40 9,0 C 9,0 C 9,1 C 75 % 0 cb 1003,4 hPa 0,0 l/m 8,0 km/h (2 Bft) S-SW 202 10 min 0,000 mm 190 W/m 4,8 C 7,8 C 19,3 km/h (3 Bft) 100,00 %
20.01.2021 15:50 8,8 C 8,8 C 9,0 C 75 % 0 cb 1003,3 hPa 0,0 l/m 9,7 km/h (2 Bft) S 180 0 min 0,000 mm 127 W/m 4,6 C 7,3 C 25,7 km/h (4 Bft) 100,00 %
20.01.2021 16:00 8,5 C 8,5 C 8,8 C 75 % 0 cb 1003,1 hPa 0,0 l/m 8,0 km/h (2 Bft) S 180 0 min 0,102 mm 86 W/m 4,3 C 7,2 C 19,3 km/h (3 Bft) 100,00 %
20.01.2021 16:10 8,3 C 8,3 C 8,5 C 76 % 0 cb 1003,3 hPa 0,0 l/m 6,4 km/h (2 Bft) S-SW 202 0 min 0,000 mm 72 W/m 4,3 C 7,4 C 17,7 km/h (3 Bft) 100,00 %
20.01.2021 16:20 8,1 C 8,1 C 8,3 C 77 % 0 cb 1003,2 hPa 0,0 l/m 4,8 km/h (1 Bft) S 180 0 min 0,000 mm 62 W/m 4,3 C 7,7 C 12,9 km/h (3 Bft) 100,00 %
20.01.2021 16:30 7,8 C 7,8 C 8,1 C 77 % 0 cb 1003,2 hPa 0,0 l/m 3,2 km/h (1 Bft) S 180 0 min 0,000 mm 40 W/m 4,0 C 7,8 C 9,7 km/h (2 Bft) 100,00 %
20.01.2021 16:40 7,4 C 7,4 C 7,8 C 78 % 0 cb 1003,0 hPa 0,0 l/m 3,2 km/h (1 Bft) S 180 0 min 0,000 mm 25 W/m 3,8 C 7,4 C 6,4 km/h (2 Bft) 100,00 %
20.01.2021 16:50 6,9 C 6,9 C 7,4 C 80 % 0 cb 1002,9 hPa 0,0 l/m 3,2 km/h (1 Bft) S 180 0 min 0,000 mm 16 W/m 3,7 C 6,9 C 6,4 km/h (2 Bft) 100,00 %
20.01.2021 17:00 6,7 C 6,7 C 6,9 C 80 % 0 cb 1002,8 hPa 0,0 l/m 3,2 km/h (1 Bft) S 180 0 min 0,025 mm 11 W/m 3,5 C 6,7 C 8,0 km/h (2 Bft) 99,56 %
20.01.2021 17:10 6,4 C 6,4 C 6,7 C 81 % 0 cb 1002,8 hPa 0,0 l/m 1,6 km/h (1 Bft) S 180 0 min 0,000 mm 5 W/m 3,4 C 6,4 C 6,4 km/h (2 Bft) 100,00 %
20.01.2021 17:20 6,3 C 6,3 C 6,4 C 82 % 0 cb 1002,7 hPa 0,0 l/m 3,2 km/h (1 Bft) S 180 0 min 0,000 mm 0 W/m 3,5 C 6,3 C 8,0 km/h (2 Bft) 100,00 %
20.01.2021 17:30 6,3 C 6,2 C 6,3 C 82 % 0 cb 1002,7 hPa 0,0 l/m 3,2 km/h (1 Bft) S-SO 157 0 min 0,000 mm 0 W/m 3,5 C 6,3 C 8,0 km/h (2 Bft) 100,00 %
20.01.2021 17:40 6,2 C 6,2 C 6,3 C 82 % 0 cb 1002,7 hPa 0,0 l/m 3,2 km/h (1 Bft) S-SO 157 0 min 0,000 mm 0 W/m 3,4 C 6,2 C 8,0 km/h (2 Bft) 100,00 %
20.01.2021 17:50 5,9 C 5,9 C 6,2 C 82 % 0 cb 1002,7 hPa 0,0 l/m 1,6 km/h (1 Bft) S-SO 157 0 min 0,000 mm 0 W/m 3,1 C 5,9 C 4,8 km/h (1 Bft) 100,00 %
20.01.2021 18:00 5,9 C 5,8 C 5,9 C 83 % 0 cb 1002,6 hPa 0,0 l/m 3,2 km/h (1 Bft) S 180 0 min 0,000 mm 0 W/m 3,2 C 5,9 C 9,7 km/h (2 Bft) 99,12 %
20.01.2021 18:10 6,0 C 5,9 C 6,0 C 83 % 0 cb 1002,5 hPa 0,0 l/m 3,2 km/h (1 Bft) S 180 0 min 0,000 mm 0 W/m 3,3 C 6,0 C 11,3 km/h (2 Bft) 99,56 %
20.01.2021 18:20 6,3 C 6,0 C 6,3 C 82 % 0 cb 1002,5 hPa 0,0 l/m 4,8 km/h (1 Bft) S-SW 202 0 min 0,000 mm 0 W/m 3,5 C 5,6 C 17,7 km/h (3 Bft) 100,00 %
20.01.2021 18:30 6,6 C 6,3 C 6,6 C 81 % 0 cb 1002,5 hPa 0,0 l/m 3,2 km/h (1 Bft) S 180 0 min 0,000 mm 0 W/m 3,6 C 6,6 C 14,5 km/h (3 Bft) 100,00 %
20.01.2021 18:40 6,6 C 6,6 C 6,6 C 81 % 0 cb 1002,5 hPa 0,0 l/m 3,2 km/h (1 Bft) S 180 0 min 0,000 mm 0 W/m 3,6 C 6,6 C 8,0 km/h (2 Bft) 100,00 %
20.01.2021 18:50 6,6 C 6,6 C 6,7 C 80 % 0 cb 1002,4 hPa 0,0 l/m 3,2 km/h (1 Bft) S 180 0 min 0,000 mm 0 W/m 3,4 C 6,6 C 12,9 km/h (3 Bft) 100,00 %
20.01.2021 19:00 6,6 C 6,6 C 6,7 C 80 % 0 cb 1002,3 hPa 0,0 l/m 3,2 km/h (1 Bft) S-SW 202 0 min 0,025 mm 0 W/m 3,4 C 6,6 C 8,0 km/h (2 Bft) 100,00 %
20.01.2021 19:10 6,4 C 6,4 C 6,6 C 81 % 0 cb 1002,4 hPa 0,0 l/m 3,2 km/h (1 Bft) S-SW 202 0 min 0,000 mm 0 W/m 3,4 C 6,4 C 6,4 km/h (2 Bft) 98,25 %
20.01.2021 19:20 6,3 C 6,3 C 6,4 C 81 % 0 cb 1002,2 hPa 0,0 l/m 1,6 km/h (1 Bft) S-SW 202 0 min 0,000 mm 0 W/m 3,3 C 6,3 C 4,8 km/h (1 Bft) 100,00 %
20.01.2021 19:30 6,3 C 6,3 C 6,3 C 81 % 0 cb 1002,1 hPa 0,0 l/m 1,6 km/h (1 Bft) S-SW 202 0 min 0,000 mm 0 W/m 3,3 C 6,3 C 4,8 km/h (1 Bft) 100,00 %
20.01.2021 19:40 6,2 C 6,2 C 6,3 C 81 % 0 cb 1002,1 hPa 0,0 l/m 1,6 km/h (1 Bft) S 180 0 min 0,000 mm 0 W/m 3,2 C 6,2 C 8,0 km/h (2 Bft) 100,00 %
20.01.2021 19:50 6,1 C 6,1 C 6,2 C 82 % 0 cb 1001,9 hPa 0,0 l/m 0,0 km/h (0 Bft) S 180 0 min 0,000 mm 0 W/m 3,3 C 6,1 C 3,2 km/h (1 Bft) 100,00 %
20.01.2021 20:00 5,9 C 5,9 C 6,0 C 82 % 0 cb 1002,0 hPa 0,0 l/m 1,6 km/h (1 Bft) S 180 0 min 0,025 mm 0 W/m 3,1 C 5,9 C 4,8 km/h (1 Bft) 100,00 %
20.01.2021 20:10 5,9 C 5,9 C 5,9 C 82 % 0 cb 1001,9 hPa 0,0 l/m 1,6 km/h (1 Bft) S 180 0 min 0,000 mm 0 W/m 3,1 C 5,9 C 4,8 km/h (1 Bft) 100,00 %
20.01.2021 20:20 5,9 C 5,9 C 5,9 C 82 % 0 cb 1001,8 hPa 0,0 l/m 1,6 km/h (1 Bft) S 180 0 min 0,000 mm 0 W/m 3,1 C 5,9 C 6,4 km/h (2 Bft) 100,00 %
20.01.2021 20:30 5,9 C 5,9 C 5,9 C 82 % 0 cb 1001,7 hPa 0,0 l/m 3,2 km/h (1 Bft) S 180 0 min 0,000 mm 0 W/m 3,1 C 5,9 C 14,5 km/h (3 Bft) 100,00 %
20.01.2021 20:40 6,0 C 5,9 C 6,0 C 81 % 0 cb 1001,6 hPa 0,0 l/m 3,2 km/h (1 Bft) S 180 0 min 0,000 mm 0 W/m 3,0 C 6,0 C 9,7 km/h (2 Bft) 100,00 %
20.01.2021 20:50 6,1 C 5,9 C 6,1 C 80 % 0 cb 1001,5 hPa 0,0 l/m 4,8 km/h (1 Bft) S 180 0 min 0,000 mm 0 W/m 2,9 C 5,4 C 19,3 km/h (3 Bft) 100,00 %
20.01.2021 21:00 6,4 C 6,1 C 6,4 C 79 % 0 cb 1001,4 hPa 0,0 l/m 6,4 km/h (2 Bft) S 180 0 min 0,025 mm 0 W/m 3,0 C 5,2 C 16,1 km/h (3 Bft) 100,00 %
20.01.2021 21:10 6,8 C 6,4 C 6,8 C 78 % 0 cb 1001,4 hPa 0,0 l/m 9,7 km/h (2 Bft) S 180 0 min 0,000 mm 0 W/m 3,2 C 4,9 C 22,5 km/h (4 Bft) 100,00 %
20.01.2021 21:20 7,3 C 6,8 C 7,3 C 76 % 0 cb 1001,2 hPa 0,0 l/m 9,7 km/h (2 Bft) S-SW 202 0 min 0,000 mm 0 W/m 3,4 C 5,5 C 24,1 km/h (4 Bft) 100,00 %
20.01.2021 21:30 7,4 C 7,3 C 7,4 C 76 % 0 cb 1001,1 hPa 0,0 l/m 8,0 km/h (2 Bft) S-SW 202 0 min 0,000 mm 0 W/m 3,5 C 6,0 C 17,7 km/h (3 Bft) 100,00 %
20.01.2021 21:40 7,6 C 7,4 C 7,6 C 75 % 0 cb 1001,0 hPa 0,0 l/m 8,0 km/h (2 Bft) S-SW 202 0 min 0,000 mm 0 W/m 3,5 C 6,2 C 20,9 km/h (4 Bft) 100,00 %
20.01.2021 21:50 7,7 C 7,5 C 7,7 C 74 % 0 cb 1001,0 hPa 0,0 l/m 9,7 km/h (2 Bft) S 180 0 min 0,000 mm 0 W/m 3,4 C 5,9 C 29,0 km/h (5 Bft) 100,00 %
20.01.2021 22:00 7,6 C 7,6 C 7,7 C 75 % 0 cb 1001,0 hPa 0,0 l/m 8,0 km/h (2 Bft) SW 225 0 min 0,025 mm 0 W/m 3,5 C 6,2 C 20,9 km/h (4 Bft) 100,00 %
20.01.2021 22:10 7,7 C 7,6 C 7,7 C 74 % 0 cb 1000,9 hPa 0,0 l/m 8,0 km/h (2 Bft) S 180 0 min 0,000 mm 0 W/m 3,4 C 6,3 C 22,5 km/h (4 Bft) 100,00 %
20.01.2021 22:20 7,7 C 7,7 C 7,7 C 74 % 0 cb 1000,8 hPa 0,0 l/m 9,7 km/h (2 Bft) S 180 0 min 0,000 mm 0 W/m 3,4 C 5,9 C 17,7 km/h (3 Bft) 100,00 %
20.01.2021 22:30 7,7 C 7,7 C 7,7 C 74 % 0 cb 1000,7 hPa 0,0 l/m 8,0 km/h (2 Bft) S 180 0 min 0,000 mm 0 W/m 3,4 C 6,3 C 17,7 km/h (3 Bft) 100,00 %
20.01.2021 22:40 7,8 C 7,7 C 7,8 C 74 % 0 cb 1000,5 hPa 0,0 l/m 9,7 km/h (2 Bft) S 180 0 min 0,000 mm 0 W/m 3,5 C 6,1 C 22,5 km/h (4 Bft) 100,00 %
20.01.2021 22:50 7,7 C 7,7 C 7,8 C 74 % 0 cb 1000,4 hPa 0,0 l/m 8,0 km/h (2 Bft) S-SW 202 0 min 0,000 mm 0 W/m 3,4 C 6,3 C 20,9 km/h (4 Bft) 100,00 %
20.01.2021 23:00 7,8 C 7,8 C 7,8 C 73 % 0 cb 1000,3 hPa 0,0 l/m 8,0 km/h (2 Bft) S-SW 202 0 min 0,025 mm 0 W/m 3,3 C 6,4 C 19,3 km/h (3 Bft) 100,00 %
20.01.2021 23:10 7,9 C 7,8 C 7,9 C 73 % 0 cb 1000,2 hPa 0,0 l/m 9,7 km/h (2 Bft) S 180 0 min 0,000 mm 0 W/m 3,4 C 6,2 C 29,0 km/h (5 Bft) 100,00 %
20.01.2021 23:20 7,8 C 7,8 C 8,0 C 73 % 0 cb 1000,0 hPa 0,0 l/m 4,8 km/h (1 Bft) S 180 0 min 0,000 mm 0 W/m 3,3 C 7,3 C 12,9 km/h (3 Bft) 100,00 %
20.01.2021 23:30 7,8 C 7,7 C 7,8 C 73 % 0 cb 999,9 hPa 0,0 l/m 8,0 km/h (2 Bft) S-SW 202 0 min 0,000 mm 0 W/m 3,3 C 6,4 C 19,3 km/h (3 Bft) 100,00 %
20.01.2021 23:40 7,9 C 7,8 C 7,9 C 73 % 0 cb 999,8 hPa 0,0 l/m 8,0 km/h (2 Bft) S 180 0 min 0,000 mm 0 W/m 3,4 C 6,5 C 27,4 km/h (4 Bft) 100,00 %
20.01.2021 23:50 8,1 C 7,8 C 8,1 C 72 % 0 cb 999,7 hPa 0,0 l/m 11,3 km/h (2 Bft) S-SW 202 0 min 0,000 mm 0 W/m 3,4 C 6,1 C 22,5 km/h (4 Bft) 100,00 %
_ Min-Zeit 01:20 01:20 01:30 23:50 00:00 23:50 - 00:20 - - - - - 01:20 01:20 04:10 07:00
Minimum _ -1,1 C -1,1 C -1,0 C 72 % 0 cb 999,7 hPa - 0,0 km/h (0 Bft) - - - - - -2,1 C -1,1 C 0,0 km/h (0 Bft) 97,81 %
_ Max-Zeit 15:30 15:40 15:30 00:00 00:00 00:00 11:00 23:50 - - 11:30 13:00 11:40 15:30 15:30 21:50 00:00
Maximum _ 9,1 C 9,0 C 9,1 C 93 % 0 cb 1012,8 hPa 0,2 l/m 11,3 km/h
S-SW (2 Bft)
- - 10 min 0,102 mm 299 W/m 4,9 C 8,3 C 29,0 km/h
S-SW (5 Bft)
100,00 %
Durchschnitt _ 3,8 C 3,7 C 3,9 C 85 % 0 cb 1006,3 hPa #1,0 l/m 3,4 km/h (1 Bft) S - #4:20 h #0,710 mm 146 W/m 1,4 C 3,4 C 10,4 km/h (2 Bft) 99,87 %
Wetterstation Gdesweiler